createdAt,value
2022-10-05T00:00:04.863Z,100813.37
2022-10-05T00:02:36.152Z,100823.58
2022-10-05T00:05:19.792Z,100827.60
2022-10-05T00:07:52.510Z,100827.33
2022-10-05T00:10:24.083Z,100827.48
2022-10-05T00:12:55.574Z,100824.03
2022-10-05T00:15:27.535Z,100816.77
2022-10-05T00:17:59.857Z,100817.23
2022-10-05T00:20:31.376Z,100808.00
2022-10-05T00:23:06.099Z,100800.02
2022-10-05T00:25:35.797Z,100793.60
2022-10-05T00:28:16.874Z,100793.83
2022-10-05T00:30:48.411Z,100790.17
2022-10-05T00:33:19.607Z,100784.45
2022-10-05T00:35:50.907Z,100777.22
2022-10-05T00:38:23.058Z,100776.83
2022-10-05T00:41:07.597Z,100779.14
2022-10-05T00:43:56.730Z,100784.83
2022-10-05T00:46:34.893Z,100798.88
2022-10-05T00:49:15.580Z,100800.34
2022-10-05T00:51:54.723Z,100802.42
2022-10-05T00:54:33.157Z,100797.20
2022-10-05T00:57:29.122Z,100801.14
2022-10-05T01:00:06.593Z,100798.84
2022-10-05T01:02:49.316Z,100790.92
2022-10-05T01:05:34.874Z,100784.20
2022-10-05T01:08:17.731Z,100790.83
2022-10-05T01:10:56.435Z,100783.02
2022-10-05T01:13:33.945Z,100777.97
2022-10-05T01:16:15.132Z,100789.54
2022-10-05T01:18:53.861Z,100787.99
2022-10-05T01:21:27.278Z,100777.05
2022-10-05T01:24:36.201Z,100779.09
2022-10-05T01:27:23.752Z,100781.75
2022-10-05T01:30:00.912Z,100785.56
2022-10-05T01:32:37.171Z,100783.05
2022-10-05T01:35:19.942Z,100785.52
2022-10-05T01:38:09.717Z,100785.69
2022-10-05T01:40:52.493Z,100781.52
2022-10-05T01:43:30.695Z,100781.67
2022-10-05T01:46:11.721Z,100790.83
2022-10-05T01:48:54.878Z,100794.42
2022-10-05T01:51:35.588Z,100798.05
2022-10-05T01:54:19.032Z,100797.05
2022-10-05T01:57:02.141Z,100805.86
2022-10-05T01:59:47.703Z,100815.28
2022-10-05T02:02:22.452Z,100814.94
2022-10-05T02:05:02.384Z,100814.98
2022-10-05T02:07:38.926Z,100810.70
2022-10-05T02:10:16.738Z,100805.84
2022-10-05T02:12:51.971Z,100802.14
2022-10-05T02:15:28.825Z,100790.86
2022-10-05T02:18:05.766Z,100777.83
2022-10-05T02:20:39.641Z,100772.48
2022-10-05T02:23:14.114Z,100781.73
2022-10-05T02:25:48.134Z,100785.33
2022-10-05T02:28:24.089Z,100771.77
2022-10-05T02:31:00.225Z,100759.95
2022-10-05T02:33:34.158Z,100755.48
2022-10-05T02:36:12.887Z,100758.06
2022-10-05T02:38:57.505Z,100768.23
2022-10-05T02:41:44.176Z,100773.98
2022-10-05T02:44:28.302Z,100780.21
2022-10-05T02:47:07.823Z,100775.23
2022-10-05T02:49:42.756Z,100768.58
2022-10-05T02:52:20.383Z,100773.23
2022-10-05T02:55:03.712Z,100784.41
2022-10-05T02:57:40.105Z,100774.73
2022-10-05T03:00:15.229Z,100770.36
2022-10-05T03:02:53.998Z,100763.14
2022-10-05T03:05:29.470Z,100756.38
2022-10-05T03:08:05.169Z,100762.41
2022-10-05T03:10:44.496Z,100769.38
2022-10-05T03:13:26.919Z,100765.66
2022-10-05T03:16:12.611Z,100761.94
2022-10-05T03:18:55.753Z,100769.05
2022-10-05T03:21:41.199Z,100764.41
2022-10-05T03:24:28.217Z,100759.17
2022-10-05T03:27:08.753Z,100775.08
2022-10-05T03:29:45.718Z,100774.65
2022-10-05T03:32:26.750Z,100781.61
2022-10-05T03:35:10.040Z,100784.48
2022-10-05T03:37:57.127Z,100775.89
2022-10-05T03:40:41.431Z,100772.69
2022-10-05T03:43:34.557Z,100770.05
2022-10-05T03:46:13.108Z,100761.45
2022-10-05T03:48:53.950Z,100751.91
2022-10-05T03:51:34.242Z,100749.09
2022-10-05T03:54:13.391Z,100750.67
2022-10-05T03:56:50.662Z,100744.91
2022-10-05T03:59:31.520Z,100744.09
2022-10-05T04:02:07.557Z,100738.48
2022-10-05T04:04:44.287Z,100737.90
2022-10-05T04:07:32.179Z,100742.67
2022-10-05T04:10:05.052Z,100746.71
2022-10-05T04:12:42.261Z,100752.48
2022-10-05T04:15:20.765Z,100752.06
2022-10-05T04:17:57.232Z,100744.83
2022-10-05T04:20:35.810Z,100744.45
2022-10-05T04:23:16.906Z,100744.41
2022-10-05T04:25:52.042Z,100743.70
2022-10-05T04:28:32.189Z,100746.52
2022-10-05T04:31:08.201Z,100746.27
2022-10-05T04:33:39.444Z,100748.18
2022-10-05T04:36:22.626Z,100751.73
2022-10-05T04:39:07.024Z,100749.27
2022-10-05T04:41:55.157Z,100741.60
2022-10-05T04:44:50.879Z,100730.57
2022-10-05T04:48:06.742Z,100729.92
2022-10-05T04:50:57.638Z,100740.27
2022-10-05T04:53:35.091Z,100750.23
2022-10-05T04:56:14.191Z,100755.08
2022-10-05T04:59:05.523Z,100757.81
2022-10-05T05:01:52.540Z,100768.34
2022-10-05T05:04:38.065Z,100777.96
2022-10-05T05:07:20.231Z,100780.37
2022-10-05T05:10:24.890Z,100782.61
2022-10-05T05:13:08.941Z,100785.05
2022-10-05T05:15:51.520Z,100780.07
2022-10-05T05:18:47.206Z,100775.30
2022-10-05T05:21:33.188Z,100771.25
2022-10-05T05:24:14.059Z,100771.50
2022-10-05T05:27:02.648Z,100764.61
2022-10-05T05:29:45.223Z,100762.41
2022-10-05T05:32:33.520Z,100758.41
2022-10-05T05:35:28.553Z,100755.64
2022-10-05T05:38:10.575Z,100756.98
2022-10-05T05:40:49.072Z,100763.77
2022-10-05T05:43:28.208Z,100764.52
2022-10-05T05:46:06.242Z,100765.00
2022-10-05T05:48:42.845Z,100761.20
2022-10-05T05:51:19.058Z,100762.31
2022-10-05T05:53:56.443Z,100769.97
2022-10-05T05:56:34.014Z,100764.89
2022-10-05T05:59:14.180Z,100757.61
2022-10-05T06:01:50.594Z,100755.29
2022-10-05T06:04:27.940Z,100755.89
2022-10-05T06:07:03.350Z,100758.73
2022-10-05T06:09:40.722Z,100753.84
2022-10-05T06:12:15.777Z,100760.07
2022-10-05T06:14:52.060Z,100762.88
2022-10-05T06:17:28.416Z,100754.43
2022-10-05T06:20:05.331Z,100752.86
2022-10-05T06:22:42.437Z,100753.97
2022-10-05T06:25:30.304Z,100750.45
2022-10-05T06:28:12.814Z,100742.70
2022-10-05T06:30:57.727Z,100747.96
2022-10-05T06:33:43.744Z,100747.40
2022-10-05T06:36:25.157Z,100729.33
2022-10-05T06:39:26.202Z,100733.46
2022-10-05T06:42:14.042Z,100742.73
2022-10-05T06:44:54.937Z,100747.51
2022-10-05T06:47:37.394Z,100747.61
2022-10-05T06:50:20.578Z,100758.30
2022-10-05T06:53:04.248Z,100768.56
2022-10-05T06:55:45.922Z,100762.52
2022-10-05T06:58:37.755Z,100764.58
2022-10-05T07:01:15.560Z,100774.44
2022-10-05T07:03:58.851Z,100769.59
2022-10-05T07:06:37.262Z,100761.32
2022-10-05T07:09:24.413Z,100770.33
2022-10-05T07:12:09.265Z,100773.34
2022-10-05T07:14:54.131Z,100769.48
2022-10-05T07:17:45.942Z,100768.59
2022-10-05T07:20:24.057Z,100765.47
2022-10-05T07:23:25.465Z,100759.80
2022-10-05T07:26:05.148Z,100762.86
2022-10-05T07:28:46.378Z,100758.48
2022-10-05T07:31:28.830Z,100762.48
2022-10-05T07:34:07.117Z,100766.67
2022-10-05T07:37:03.044Z,100763.94
2022-10-05T07:39:59.481Z,100762.91
2022-10-05T07:42:50.514Z,100760.15
2022-10-05T07:45:31.587Z,100760.45
2022-10-05T07:48:08.868Z,100760.80
2022-10-05T07:50:46.016Z,100758.46
2022-10-05T07:53:21.402Z,100756.52
2022-10-05T07:55:55.728Z,100753.55
2022-10-05T07:58:31.685Z,100750.88
2022-10-05T08:01:10.215Z,100748.63
2022-10-05T08:03:52.428Z,100736.04
2022-10-05T08:06:41.166Z,100727.73
2022-10-05T08:09:30.926Z,100726.38
2022-10-05T08:12:18.224Z,100719.67
2022-10-05T08:14:58.402Z,100725.60
2022-10-05T08:17:41.098Z,100728.66
2022-10-05T08:20:31.563Z,100726.05
2022-10-05T08:23:08.795Z,100722.74
2022-10-05T08:25:55.283Z,100725.18
2022-10-05T08:28:29.847Z,100719.05
2022-10-05T08:31:02.690Z,100719.03
2022-10-05T08:33:40.691Z,100722.88
2022-10-05T08:36:17.401Z,100724.80
2022-10-05T08:38:54.937Z,100724.86
2022-10-05T08:41:52.866Z,100725.77
2022-10-05T08:45:06.058Z,100719.08
2022-10-05T08:48:06.512Z,100718.65
2022-10-05T08:51:17.841Z,100715.64
2022-10-05T08:57:02.107Z,100713.27
2022-10-05T08:59:59.053Z,100715.70
2022-10-05T09:02:41.990Z,100715.71
2022-10-05T09:05:38.011Z,100711.88
2022-10-05T09:08:31.323Z,100716.17
2022-10-05T09:11:19.165Z,100715.41
2022-10-05T09:14:29.756Z,100713.14
2022-10-05T09:17:39.202Z,100714.48
2022-10-05T09:20:32.399Z,100715.36
2022-10-05T09:23:16.078Z,100711.88
2022-10-05T09:25:58.982Z,100708.14
2022-10-05T09:28:39.682Z,100707.16
2022-10-05T09:31:41.227Z,100706.77
2022-10-05T09:34:50.840Z,100708.73
2022-10-05T09:37:37.505Z,100706.48
2022-10-05T09:40:41.935Z,100700.36
2022-10-05T09:43:40.446Z,100699.48
2022-10-05T09:46:36.446Z,100701.64
2022-10-05T09:49:40.264Z,100695.95
2022-10-05T09:52:27.993Z,100699.34
2022-10-05T09:55:43.948Z,100699.58
2022-10-05T09:58:48.568Z,100707.16
2022-10-05T10:01:35.267Z,100711.73
2022-10-05T10:04:44.213Z,100719.27
2022-10-05T10:07:37.305Z,100720.05
2022-10-05T10:10:39.140Z,100717.48
2022-10-05T10:13:32.039Z,100711.95
2022-10-05T10:16:17.601Z,100707.36
2022-10-05T10:19:21.146Z,100703.73
2022-10-05T10:22:31.349Z,100702.52
2022-10-05T10:25:19.822Z,100695.52
2022-10-05T10:28:08.618Z,100698.52
2022-10-05T10:31:07.836Z,100689.83
2022-10-05T10:34:11.936Z,100685.54
2022-10-05T10:37:06.472Z,100695.25
2022-10-05T10:39:55.656Z,100689.31
2022-10-05T10:42:38.937Z,100688.58
2022-10-05T10:45:21.347Z,100687.37
2022-10-05T10:48:02.690Z,100686.73
2022-10-05T10:50:50.975Z,100679.94
2022-10-05T10:54:03.754Z,100680.73
2022-10-05T10:57:00.008Z,100687.30
2022-10-05T11:00:18.347Z,100691.23
2022-10-05T11:03:05.125Z,100693.59
2022-10-05T11:05:55.200Z,100686.02
2022-10-05T11:08:59.354Z,100680.59
2022-10-05T11:12:03.786Z,100667.00
2022-10-05T11:14:52.607Z,100657.88
2022-10-05T11:17:57.173Z,100660.16
2022-10-05T11:20:49.581Z,100655.05
2022-10-05T11:23:43.836Z,100647.73
2022-10-05T11:26:32.722Z,100646.26
2022-10-05T11:29:29.436Z,100640.30
2022-10-05T11:32:31.779Z,100640.64
2022-10-05T11:35:24.987Z,100639.73
2022-10-05T11:38:17.385Z,100638.23
2022-10-05T11:41:13.424Z,100634.15
2022-10-05T11:44:07.043Z,100633.45
2022-10-05T11:46:49.830Z,100633.25
2022-10-05T11:49:34.428Z,100627.64
2022-10-05T11:52:12.721Z,100625.13
2022-10-05T11:55:25.136Z,100624.70
2022-10-05T11:58:01.210Z,100625.90
2022-10-05T12:00:40.687Z,100626.05
2022-10-05T12:03:39.067Z,100626.36
2022-10-05T12:06:26.623Z,100629.65
2022-10-05T12:09:12.401Z,100628.52
2022-10-05T12:11:58.635Z,100627.39
2022-10-05T12:14:42.628Z,100627.02
2022-10-05T12:17:24.394Z,100622.33
2022-10-05T12:20:01.518Z,100622.06
2022-10-05T12:22:38.954Z,100622.00
2022-10-05T12:25:25.893Z,100623.93
2022-10-05T12:28:00.121Z,100626.99
2022-10-05T12:30:52.971Z,100624.21
2022-10-05T12:33:29.309Z,100622.83
2022-10-05T12:36:07.156Z,100617.35
2022-10-05T12:38:44.497Z,100614.59
2022-10-05T12:41:24.243Z,100609.11
2022-10-05T12:44:11.351Z,100599.30
2022-10-05T12:46:51.641Z,100595.62
2022-10-05T12:50:01.575Z,100597.07
2022-10-05T12:52:47.354Z,100601.05
2022-10-05T12:55:26.851Z,100594.91
2022-10-05T12:58:09.365Z,100596.26
2022-10-05T13:00:52.050Z,100590.55
2022-10-05T13:03:32.028Z,100588.52
2022-10-05T13:06:13.354Z,100581.30
2022-10-05T13:08:53.475Z,100572.12
2022-10-05T13:11:35.322Z,100575.29
2022-10-05T13:14:16.734Z,100570.24
2022-10-05T13:16:55.494Z,100572.42
2022-10-05T13:19:40.667Z,100574.27
2022-10-05T13:22:28.711Z,100574.16
2022-10-05T13:25:10.618Z,100573.73
2022-10-05T13:27:47.052Z,100574.00
2022-10-05T13:30:20.807Z,100576.61
2022-10-05T13:32:58.846Z,100583.25
2022-10-05T13:35:45.306Z,100579.92
2022-10-05T13:38:31.266Z,100585.61
2022-10-05T13:41:16.109Z,100584.52
2022-10-05T13:43:49.731Z,100586.78
2022-10-05T13:46:29.896Z,100588.46
2022-10-05T13:49:10.745Z,100586.12
2022-10-05T13:51:48.430Z,100584.50
2022-10-05T13:54:24.282Z,100585.23
2022-10-05T13:57:03.525Z,100587.02
2022-10-05T13:59:43.739Z,100585.58
2022-10-05T14:02:21.849Z,100585.40
2022-10-05T14:04:59.865Z,100582.10
2022-10-05T14:07:39.554Z,100581.69
2022-10-05T14:10:29.779Z,100579.14
2022-10-05T14:13:02.429Z,100577.64
2022-10-05T14:15:41.312Z,100573.44
2022-10-05T14:18:28.012Z,100575.95
2022-10-05T14:21:05.130Z,100570.77
2022-10-05T14:23:36.521Z,100569.47
2022-10-05T14:26:31.561Z,100569.30
2022-10-05T14:29:05.513Z,100573.86
2022-10-05T14:31:38.664Z,100574.27
2022-10-05T14:34:32.244Z,100567.63
2022-10-05T14:37:10.320Z,100564.05
2022-10-05T14:39:44.531Z,100560.52
2022-10-05T14:42:21.496Z,100562.81
2022-10-05T14:45:12.987Z,100564.70
2022-10-05T14:47:51.528Z,100556.75
2022-10-05T14:50:29.800Z,100554.95
2022-10-05T14:53:19.224Z,100552.36
2022-10-05T14:56:32.502Z,100542.48
2022-10-05T14:59:30.876Z,100538.41
2022-10-05T15:02:36.987Z,100542.02
2022-10-05T15:05:17.058Z,100540.09
2022-10-05T15:07:50.512Z,100546.41
2022-10-05T15:10:43.649Z,100543.13
2022-10-05T15:13:20.294Z,100540.06
2022-10-05T15:15:54.932Z,100539.66
2022-10-05T15:18:37.624Z,100541.11
2022-10-05T15:21:26.641Z,100532.60
2022-10-05T15:24:02.478Z,100529.13
2022-10-05T15:26:45.341Z,100527.52
2022-10-05T15:29:30.572Z,100523.34
2022-10-05T15:32:14.816Z,100522.91
2022-10-05T15:34:58.645Z,100521.64
2022-10-05T15:37:37.786Z,100522.57
2022-10-05T15:40:17.537Z,100519.30
2022-10-05T15:42:50.737Z,100524.89
2022-10-05T15:45:30.421Z,100523.23
2022-10-05T15:48:05.160Z,100521.94
2022-10-05T15:50:44.012Z,100518.44
2022-10-05T15:53:25.263Z,100524.96
2022-10-05T15:56:02.845Z,100522.17
2022-10-05T15:58:55.318Z,100527.59
2022-10-05T16:01:48.559Z,100527.73
2022-10-05T16:04:27.552Z,100525.90
2022-10-05T16:07:20.142Z,100528.88
2022-10-05T16:09:59.643Z,100519.74
2022-10-05T16:12:50.151Z,100515.98
2022-10-05T16:15:30.011Z,100520.84
2022-10-05T16:18:19.310Z,100524.58
2022-10-05T16:20:57.340Z,100515.10
2022-10-05T16:23:39.124Z,100511.29
2022-10-05T16:26:26.240Z,100506.36
2022-10-05T16:29:07.012Z,100505.33
2022-10-05T16:31:47.378Z,100510.36
2022-10-05T16:34:31.164Z,100507.98
2022-10-05T16:37:10.995Z,100510.42
2022-10-05T16:39:53.216Z,100499.20
2022-10-05T16:42:37.016Z,100492.86
2022-10-05T16:45:18.230Z,100492.92
2022-10-05T16:47:56.976Z,100496.14
2022-10-05T16:50:37.282Z,100500.99
2022-10-05T16:53:17.149Z,100505.89
2022-10-05T16:55:54.359Z,100512.57
2022-10-05T16:58:31.127Z,100509.66
2022-10-05T17:01:24.701Z,100512.60
2022-10-05T17:04:08.239Z,100506.64
2022-10-05T17:07:03.423Z,100506.62
2022-10-05T17:09:59.551Z,100506.47
2022-10-05T17:12:48.385Z,100507.58
2022-10-05T17:15:47.999Z,100513.62
2022-10-05T17:18:30.285Z,100511.17
2022-10-05T17:21:08.283Z,100509.95
2022-10-05T17:23:55.125Z,100509.50
2022-10-05T17:26:56.896Z,100507.53
2022-10-05T17:29:47.781Z,100502.67
2022-10-05T17:32:39.740Z,100506.11
2022-10-05T17:35:22.408Z,100504.96
2022-10-05T17:38:22.118Z,100502.70
2022-10-05T17:41:29.807Z,100501.21
2022-10-05T17:44:24.716Z,100494.09
2022-10-05T17:46:58.676Z,100496.73
2022-10-05T17:50:16.236Z,100496.73
2022-10-05T17:53:27.661Z,100494.80
2022-10-05T17:56:08.280Z,100489.90
2022-10-05T17:59:06.919Z,100484.06
2022-10-05T18:01:40.411Z,100489.05
2022-10-05T18:04:35.092Z,100491.35
2022-10-05T18:07:19.883Z,100487.07
2022-10-05T18:10:23.485Z,100487.73
2022-10-05T18:13:22.607Z,100489.61
2022-10-05T18:15:54.559Z,100491.48
2022-10-05T18:18:57.981Z,100485.52
2022-10-05T18:21:35.795Z,100481.13
2022-10-05T18:24:37.144Z,100476.89
2022-10-05T18:27:30.579Z,100478.24
2022-10-05T18:30:15.797Z,100478.52
2022-10-05T18:32:52.865Z,100481.47
2022-10-05T18:35:30.115Z,100481.17
2022-10-05T18:38:11.477Z,100484.45
2022-10-05T18:40:54.282Z,100490.83
2022-10-05T18:43:34.784Z,100489.62
2022-10-05T18:46:18.131Z,100482.80
2022-10-05T18:49:01.571Z,100485.63
2022-10-05T18:51:51.532Z,100485.63
2022-10-05T18:54:40.365Z,100481.53
2022-10-05T18:57:41.213Z,100472.60
2022-10-05T19:00:17.855Z,100470.05
2022-10-05T19:02:54.690Z,100469.83
2022-10-05T19:05:48.083Z,100470.64
2022-10-05T19:08:30.126Z,100470.16
2022-10-05T19:11:12.575Z,100465.48
2022-10-05T19:13:52.026Z,100471.03
2022-10-05T19:16:43.344Z,100472.34
2022-10-05T19:19:33.611Z,100477.65
2022-10-05T19:22:10.081Z,100479.23
2022-10-05T19:24:50.626Z,100479.36
2022-10-05T19:27:37.206Z,100479.03
2022-10-05T19:30:23.332Z,100480.56
2022-10-05T19:33:09.209Z,100475.42
2022-10-05T19:35:57.696Z,100469.48
2022-10-05T19:38:34.835Z,100467.73
2022-10-05T19:41:16.364Z,100467.63
2022-10-05T19:44:03.766Z,100469.43
2022-10-05T19:46:51.255Z,100469.91
2022-10-05T19:49:52.108Z,100471.17
2022-10-05T19:52:31.385Z,100477.05
2022-10-05T19:55:15.012Z,100473.61
2022-10-05T19:57:54.025Z,100474.70
2022-10-05T20:00:35.136Z,100473.70
2022-10-05T20:03:28.359Z,100475.14
2022-10-05T20:06:01.478Z,100477.15
2022-10-05T20:08:40.884Z,100480.36
2022-10-05T20:11:14.630Z,100476.17
2022-10-05T20:13:47.783Z,100480.48
2022-10-05T20:16:58.315Z,100482.83
2022-10-05T20:19:54.400Z,100487.31
2022-10-05T20:22:39.840Z,100485.21
2022-10-05T20:25:32.512Z,100486.41
2022-10-05T20:28:04.178Z,100489.47
2022-10-05T20:30:35.547Z,100491.66
2022-10-05T20:33:11.973Z,100492.67
2022-10-05T20:35:43.752Z,100499.60
2022-10-05T20:38:15.178Z,100502.38
2022-10-05T20:40:46.926Z,100500.89
2022-10-05T20:43:25.297Z,100503.98
2022-10-05T20:45:56.909Z,100504.70
2022-10-05T20:48:28.804Z,100505.15
2022-10-05T20:51:00.555Z,100503.86
2022-10-05T20:53:31.735Z,100502.16
2022-10-05T20:56:04.768Z,100502.54
2022-10-05T20:58:36.762Z,100503.13
2022-10-05T21:01:19.369Z,100509.59
2022-10-05T21:03:51.140Z,100508.16
2022-10-05T21:06:23.198Z,100512.55
2022-10-05T21:08:54.518Z,100512.66
2022-10-05T21:11:28.327Z,100520.34
2022-10-05T21:14:04.881Z,100524.35
2022-10-05T21:16:38.385Z,100527.09
2022-10-05T21:19:12.478Z,100530.00
2022-10-05T21:21:44.966Z,100531.80
2022-10-05T21:24:17.570Z,100533.78
2022-10-05T21:26:49.262Z,100532.14
2022-10-05T21:29:20.496Z,100527.02
2022-10-05T21:31:51.975Z,100529.00
2022-10-05T21:34:23.685Z,100528.14
2022-10-05T21:36:55.408Z,100528.00
2022-10-05T21:39:27.644Z,100527.90
2022-10-05T21:41:58.851Z,100529.90
2022-10-05T21:44:30.431Z,100533.13
2022-10-05T21:47:02.587Z,100534.44
2022-10-05T21:49:34.636Z,100538.73
2022-10-05T21:52:06.747Z,100538.80
2022-10-05T21:54:38.281Z,100540.64
2022-10-05T21:57:12.516Z,100542.41
2022-10-05T21:59:44.205Z,100544.48
2022-10-05T22:02:15.677Z,100546.79
2022-10-05T22:04:47.070Z,100547.38
2022-10-05T22:07:20.863Z,100549.83
2022-10-05T22:09:52.939Z,100550.08
2022-10-05T22:12:26.647Z,100550.85
2022-10-05T22:14:58.289Z,100551.19
2022-10-05T22:17:31.986Z,100552.34
2022-10-05T22:20:03.905Z,100552.38
2022-10-05T22:22:35.335Z,100552.52
2022-10-05T22:25:07.507Z,100549.36
2022-10-05T22:27:40.349Z,100553.00
2022-10-05T22:30:15.006Z,100545.08
2022-10-05T22:32:45.341Z,100555.69
2022-10-05T22:35:16.629Z,100550.27
2022-10-05T22:37:47.842Z,100554.64
2022-10-05T22:40:19.525Z,100554.83
2022-10-05T22:42:50.924Z,100553.23
2022-10-05T22:45:22.165Z,100555.70
2022-10-05T22:47:53.387Z,100557.08
2022-10-05T22:50:24.760Z,100559.42
2022-10-05T22:52:56.277Z,100558.33
2022-10-05T22:55:27.634Z,100560.95
2022-10-05T22:57:59.072Z,100568.84
2022-10-05T23:00:53.469Z,100573.86
2022-10-05T23:03:21.568Z,100571.09
2022-10-05T23:05:59.531Z,100569.86
2022-10-05T23:08:31.396Z,100573.63
2022-10-05T23:11:06.483Z,100574.09
2022-10-05T23:13:38.168Z,100572.98
2022-10-05T23:16:13.885Z,100579.38
2022-10-05T23:18:47.205Z,100584.02
2022-10-05T23:21:19.335Z,100581.44
2022-10-05T23:23:52.470Z,100579.94
2022-10-05T23:26:25.454Z,100584.51
2022-10-05T23:28:56.723Z,100586.52
2022-10-05T23:31:31.318Z,100584.99
2022-10-05T23:34:02.626Z,100585.59
2022-10-05T23:36:33.968Z,100592.54
2022-10-05T23:39:05.555Z,100590.67
2022-10-05T23:41:36.837Z,100588.71
2022-10-05T23:44:08.171Z,100586.33
2022-10-05T23:46:39.543Z,100587.61
2022-10-05T23:49:10.851Z,100584.21
2022-10-05T23:51:42.634Z,100581.19
2022-10-05T23:54:14.656Z,100581.86
2022-10-05T23:56:46.009Z,100582.13
2022-10-05T23:59:17.282Z,100583.37
